createdAt,value
2022-08-11T00:00:30.858Z,0.00
2022-08-11T00:01:30.881Z,0.00
2022-08-11T00:02:30.958Z,0.00
2022-08-11T00:03:43.733Z,0.00
2022-08-11T00:04:30.927Z,0.00
2022-08-11T00:05:30.944Z,0.00
2022-08-11T00:06:30.961Z,0.00
2022-08-11T00:07:30.980Z,0.00
2022-08-11T00:08:30.994Z,0.00
2022-08-11T00:09:31.016Z,0.00
2022-08-11T00:10:31.027Z,0.00
2022-08-11T00:11:31.069Z,0.00
2022-08-11T00:12:31.062Z,0.00
2022-08-11T00:13:31.080Z,0.00
2022-08-11T00:14:35.974Z,0.00
2022-08-11T00:15:31.126Z,0.00
2022-08-11T00:16:31.148Z,0.00
2022-08-11T00:17:31.153Z,0.00
2022-08-11T00:18:31.165Z,0.00
2022-08-11T00:20:12.446Z,0.00
2022-08-11T00:20:31.204Z,0.00
2022-08-11T00:21:32.510Z,0.00
2022-08-11T00:22:31.245Z,0.00
2022-08-11T00:23:31.263Z,0.00
2022-08-11T00:24:31.278Z,0.00
2022-08-11T00:25:31.300Z,0.00
2022-08-11T00:26:31.334Z,0.00
2022-08-11T00:27:31.338Z,0.00
2022-08-11T00:28:31.357Z,0.00
2022-08-11T00:29:31.379Z,0.00
2022-08-11T00:30:31.390Z,0.00
2022-08-11T00:31:31.431Z,0.00
2022-08-11T00:32:31.431Z,0.00
2022-08-11T00:33:44.877Z,0.00
2022-08-11T00:34:31.467Z,0.00
2022-08-11T00:35:51.948Z,0.00
2022-08-11T00:36:31.525Z,0.00
2022-08-11T00:37:31.519Z,0.00
2022-08-11T00:38:31.530Z,0.00
2022-08-11T00:39:31.626Z,0.00
2022-08-11T00:40:31.566Z,0.00
2022-08-11T00:41:31.608Z,0.00
2022-08-11T00:42:31.595Z,0.00
2022-08-11T00:43:31.617Z,0.00
2022-08-11T00:44:31.630Z,0.00
2022-08-11T00:45:31.652Z,0.00
2022-08-11T00:46:31.687Z,0.00
2022-08-11T00:47:31.685Z,0.00
2022-08-11T00:48:31.697Z,0.00
2022-08-11T00:49:31.716Z,0.00
2022-08-11T00:50:31.735Z,0.00
2022-08-11T00:52:02.059Z,0.00
2022-08-11T00:52:31.907Z,0.00
2022-08-11T00:53:31.787Z,0.00
2022-08-11T00:54:33.115Z,0.00
2022-08-11T00:55:31.825Z,0.00
2022-08-11T00:56:31.863Z,0.00
2022-08-11T00:57:37.064Z,0.00
2022-08-11T00:58:31.886Z,0.00
2022-08-11T00:59:35.160Z,0.00
2022-08-11T01:00:31.984Z,0.00
2022-08-11T01:01:32.027Z,0.00
2022-08-11T01:02:32.002Z,0.00
2022-08-11T01:03:31.966Z,0.00
2022-08-11T01:04:31.980Z,0.00
2022-08-11T01:05:32.004Z,0.00
2022-08-11T01:06:32.044Z,0.00
2022-08-11T01:08:02.155Z,0.00
2022-08-11T01:08:32.056Z,0.00
2022-08-11T01:09:32.075Z,0.00
2022-08-11T01:10:32.089Z,0.00
2022-08-11T01:11:32.139Z,0.00
2022-08-11T01:12:32.125Z,0.00
2022-08-11T01:13:32.148Z,0.00
2022-08-11T01:14:34.544Z,0.00
2022-08-11T01:15:32.185Z,0.00
2022-08-11T01:16:32.225Z,0.00
2022-08-11T01:17:32.214Z,0.00
2022-08-11T01:18:32.236Z,0.00
2022-08-11T01:19:32.255Z,0.00
2022-08-11T01:20:47.625Z,0.00
2022-08-11T01:21:32.322Z,0.00
2022-08-11T01:22:32.390Z,0.00
2022-08-11T01:23:32.320Z,0.00
2022-08-11T01:24:32.349Z,0.00
2022-08-11T01:25:32.359Z,0.00
2022-08-11T01:26:32.402Z,0.00
2022-08-11T01:27:32.380Z,0.00
2022-08-11T01:28:32.842Z,0.00
2022-08-11T01:29:32.422Z,0.00
2022-08-11T01:30:32.465Z,0.00
2022-08-11T01:31:32.478Z,0.00
2022-08-11T01:32:32.526Z,0.00
2022-08-11T01:33:32.487Z,0.00
2022-08-11T01:34:32.512Z,0.00
2022-08-11T01:35:32.527Z,0.00
2022-08-11T01:36:32.574Z,0.00
2022-08-11T01:37:32.567Z,0.00
2022-08-11T01:38:32.584Z,0.00
2022-08-11T01:39:32.632Z,0.00
2022-08-11T01:40:32.613Z,0.00
2022-08-11T01:41:32.654Z,0.00
2022-08-11T01:42:32.677Z,0.00
2022-08-11T01:43:32.666Z,0.00
2022-08-11T01:44:32.690Z,0.00
2022-08-11T01:45:32.697Z,0.00
2022-08-11T01:46:32.743Z,0.00
2022-08-11T01:47:32.792Z,0.00
2022-08-11T01:48:32.748Z,0.00
2022-08-11T01:50:07.107Z,0.00
2022-08-11T01:50:32.787Z,0.00
2022-08-11T01:51:32.817Z,0.00
2022-08-11T01:52:35.116Z,0.00
2022-08-11T01:53:32.827Z,0.00
2022-08-11T01:54:32.851Z,0.00
2022-08-11T01:55:32.866Z,0.00
2022-08-11T01:56:32.911Z,0.00
2022-08-11T01:57:32.899Z,0.00
2022-08-11T01:58:43.730Z,0.00
2022-08-11T01:59:32.947Z,0.00
2022-08-11T02:00:33.033Z,0.00
2022-08-11T02:01:32.997Z,0.00
2022-08-11T02:02:33.043Z,0.00
2022-08-11T02:03:33.025Z,0.00
2022-08-11T02:04:33.033Z,0.00
2022-08-11T02:05:33.049Z,0.00
2022-08-11T02:06:33.092Z,0.00
2022-08-11T02:07:33.082Z,0.00
2022-08-11T02:08:33.798Z,0.00
2022-08-11T02:09:33.114Z,0.00
2022-08-11T02:10:35.369Z,0.00
2022-08-11T02:11:35.320Z,0.00
2022-08-11T02:12:33.175Z,0.00
2022-08-11T02:13:35.542Z,0.00
2022-08-11T02:14:33.212Z,0.00
2022-08-11T02:15:33.227Z,0.00
2022-08-11T02:16:33.270Z,0.00
2022-08-11T02:17:33.259Z,0.00
2022-08-11T02:18:33.280Z,0.00
2022-08-11T02:19:33.294Z,0.00
2022-08-11T02:20:33.317Z,0.00
2022-08-11T02:21:33.343Z,0.00
2022-08-11T02:22:33.456Z,0.00
2022-08-11T02:24:06.991Z,0.00
2022-08-11T02:24:33.382Z,0.00
2022-08-11T02:25:33.407Z,0.00
2022-08-11T02:26:33.424Z,0.00
2022-08-11T02:27:33.425Z,0.00
2022-08-11T02:28:38.365Z,0.00
2022-08-11T02:29:33.459Z,0.00
2022-08-11T02:30:33.464Z,0.00
2022-08-11T02:32:24.003Z,0.00
2022-08-11T02:32:33.501Z,0.00
2022-08-11T02:33:33.514Z,0.00
2022-08-11T02:34:33.522Z,0.00
2022-08-11T02:35:33.544Z,0.00
2022-08-11T02:36:33.581Z,0.00
2022-08-11T02:37:33.579Z,0.00
2022-08-11T02:38:33.585Z,0.00
2022-08-11T02:39:33.669Z,0.00
2022-08-11T02:40:33.624Z,0.00
2022-08-11T02:41:33.660Z,0.00
2022-08-11T02:42:36.140Z,0.00
2022-08-11T02:43:33.671Z,0.00
2022-08-11T02:44:33.692Z,0.00
2022-08-11T02:45:33.705Z,0.00
2022-08-11T02:46:33.739Z,0.00
2022-08-11T02:47:33.740Z,0.00
2022-08-11T02:48:33.745Z,0.00
2022-08-11T02:49:33.767Z,0.00
2022-08-11T02:50:33.783Z,0.00
2022-08-11T02:51:33.826Z,0.00
2022-08-11T02:52:34.249Z,0.00
2022-08-11T02:53:33.838Z,0.00
2022-08-11T02:54:33.855Z,0.00
2022-08-11T02:55:44.492Z,0.00
2022-08-11T02:56:33.915Z,0.00
2022-08-11T02:57:33.909Z,0.00
2022-08-11T02:58:33.924Z,0.00
2022-08-11T02:59:33.948Z,0.00
2022-08-11T03:00:33.962Z,0.00
2022-08-11T03:01:34.070Z,0.00
2022-08-11T03:02:34.053Z,0.00
2022-08-11T03:03:34.021Z,0.00
2022-08-11T03:04:37.534Z,0.00
2022-08-11T03:05:34.059Z,0.00
2022-08-11T03:06:34.087Z,0.00
2022-08-11T03:07:34.087Z,0.00
2022-08-11T03:08:34.103Z,0.00
2022-08-11T03:09:34.127Z,0.00
2022-08-11T03:10:34.133Z,0.00
2022-08-11T03:11:34.180Z,0.00
2022-08-11T03:12:34.191Z,0.00
2022-08-11T03:13:34.190Z,0.00
2022-08-11T03:14:34.227Z,0.00
2022-08-11T03:15:34.229Z,0.00
2022-08-11T03:16:34.291Z,0.00
2022-08-11T03:17:34.276Z,0.00
2022-08-11T03:18:34.291Z,0.00
2022-08-11T03:19:34.301Z,0.00
2022-08-11T03:20:38.257Z,0.00
2022-08-11T03:21:50.592Z,0.00
2022-08-11T03:22:34.365Z,0.00
2022-08-11T03:23:34.375Z,0.00
2022-08-11T03:24:34.394Z,0.00
2022-08-11T03:25:34.415Z,0.00
2022-08-11T03:26:34.456Z,0.00
2022-08-11T03:27:34.452Z,0.00
2022-08-11T03:28:34.467Z,0.00
2022-08-11T03:29:34.491Z,0.00
2022-08-11T03:30:34.504Z,0.00
2022-08-11T03:31:34.548Z,0.00
2022-08-11T03:32:34.542Z,0.00
2022-08-11T03:33:34.563Z,0.00
2022-08-11T03:34:34.581Z,0.00
2022-08-11T03:35:34.604Z,0.00
2022-08-11T03:36:54.465Z,0.00
2022-08-11T03:37:34.637Z,0.00
2022-08-11T03:38:34.646Z,0.00
2022-08-11T03:39:34.755Z,0.00
2022-08-11T03:40:34.679Z,0.00
2022-08-11T03:42:02.241Z,0.00
2022-08-11T03:42:34.720Z,0.00
2022-08-11T03:43:34.852Z,0.00
2022-08-11T03:44:34.746Z,0.00
2022-08-11T03:45:40.344Z,0.00
2022-08-11T03:46:34.820Z,0.00
2022-08-11T03:47:34.805Z,0.00
2022-08-11T03:48:40.812Z,0.00
2022-08-11T03:49:34.837Z,0.00
2022-08-11T03:50:34.849Z,0.00
2022-08-11T03:51:44.661Z,0.00
2022-08-11T03:52:34.892Z,0.00
2022-08-11T03:53:34.910Z,0.00
2022-08-11T03:54:34.925Z,0.00
2022-08-11T03:55:34.951Z,0.00
2022-08-11T03:56:34.985Z,0.00
2022-08-11T03:57:34.989Z,0.00
2022-08-11T03:58:39.537Z,0.00
2022-08-11T03:59:35.025Z,0.00
2022-08-11T04:00:35.034Z,0.00
2022-08-11T04:01:35.145Z,0.00
2022-08-11T04:02:35.067Z,0.00
2022-08-11T04:03:35.090Z,0.00
2022-08-11T04:04:35.104Z,0.00
2022-08-11T04:05:35.129Z,0.00
2022-08-11T04:06:35.162Z,0.00
2022-08-11T04:07:35.160Z,0.00
2022-08-11T04:08:35.175Z,0.00
2022-08-11T04:09:35.196Z,0.00
2022-08-11T04:10:35.211Z,0.00
2022-08-11T04:11:35.258Z,0.00
2022-08-11T04:12:35.925Z,0.00
2022-08-11T04:13:35.267Z,0.00
2022-08-11T04:14:35.279Z,0.00
2022-08-11T04:15:35.310Z,0.00
2022-08-11T04:16:35.336Z,0.00
2022-08-11T04:17:35.334Z,0.00
2022-08-11T04:18:35.355Z,0.00
2022-08-11T04:19:35.373Z,0.00
2022-08-11T04:20:35.388Z,0.00
2022-08-11T04:21:35.454Z,0.00
2022-08-11T04:22:35.425Z,0.00
2022-08-11T04:24:35.403Z,0.00
2022-08-11T04:24:48.370Z,0.00
2022-08-11T04:25:57.646Z,0.00
2022-08-11T04:26:35.520Z,0.00
2022-08-11T04:27:37.696Z,0.00
2022-08-11T04:28:35.530Z,0.00
2022-08-11T04:29:36.251Z,0.00
2022-08-11T04:30:35.577Z,0.00
2022-08-11T04:31:51.180Z,0.00
2022-08-11T04:32:35.732Z,0.00
2022-08-11T04:33:35.631Z,0.00
2022-08-11T04:34:35.645Z,0.00
2022-08-11T04:35:35.665Z,0.00
2022-08-11T04:36:35.704Z,0.00
2022-08-11T04:37:35.698Z,0.00
2022-08-11T04:38:35.714Z,0.00
2022-08-11T04:39:35.795Z,0.00
2022-08-11T04:40:35.745Z,0.00
2022-08-11T04:41:35.792Z,0.00
2022-08-11T04:42:35.782Z,0.00
2022-08-11T04:43:35.800Z,0.00
2022-08-11T04:44:35.816Z,0.00
2022-08-11T04:45:35.835Z,0.00
2022-08-11T04:46:35.876Z,0.00
2022-08-11T04:48:03.958Z,0.00
2022-08-11T04:48:35.888Z,0.00
2022-08-11T04:49:35.907Z,0.00
2022-08-11T04:50:35.922Z,0.00
2022-08-11T04:51:35.970Z,0.00
2022-08-11T04:52:38.299Z,0.00
2022-08-11T04:53:35.978Z,0.00
2022-08-11T04:54:35.992Z,0.00
2022-08-11T04:55:37.671Z,0.00
2022-08-11T04:56:36.061Z,0.00
2022-08-11T04:57:36.056Z,0.00
2022-08-11T04:58:36.065Z,0.00
2022-08-11T04:59:36.083Z,0.00
2022-08-11T05:00:36.100Z,0.00
2022-08-11T05:01:37.528Z,0.00
2022-08-11T05:02:36.214Z,0.00
2022-08-11T05:03:36.160Z,0.00
2022-08-11T05:04:36.165Z,0.00
2022-08-11T05:05:36.186Z,0.00
2022-08-11T05:06:36.205Z,0.00
2022-08-11T05:07:36.224Z,0.00
2022-08-11T05:08:36.239Z,0.00
2022-08-11T05:09:36.261Z,0.00
2022-08-11T05:10:40.029Z,0.00
2022-08-11T05:11:36.326Z,0.00
2022-08-11T05:12:36.438Z,0.00
2022-08-11T05:13:36.325Z,0.00
2022-08-11T05:14:36.342Z,0.00
2022-08-11T05:15:43.002Z,0.00
2022-08-11T05:16:36.410Z,0.00
2022-08-11T05:17:36.402Z,0.00
2022-08-11T05:18:36.416Z,0.00
2022-08-11T05:19:36.438Z,0.00
2022-08-11T05:20:36.453Z,0.00
2022-08-11T05:21:44.908Z,0.00
2022-08-11T05:22:36.745Z,0.00
2022-08-11T05:23:36.510Z,0.00
2022-08-11T05:24:36.529Z,0.00
2022-08-11T05:26:42.953Z,0.00
2022-08-11T05:26:52.729Z,0.00
2022-08-11T05:27:36.587Z,0.00
2022-08-11T05:28:36.601Z,0.00
2022-08-11T05:29:36.624Z,0.00
2022-08-11T05:30:36.638Z,0.00
2022-08-11T05:31:36.662Z,0.00
2022-08-11T05:32:36.832Z,0.00
2022-08-11T05:33:36.701Z,0.00
2022-08-11T05:34:36.716Z,0.00
2022-08-11T05:36:01.835Z,0.00
2022-08-11T05:36:36.782Z,0.00
2022-08-11T05:37:36.773Z,0.00
2022-08-11T05:38:36.787Z,0.00
2022-08-11T05:39:37.288Z,0.00
2022-08-11T05:40:36.823Z,0.00
2022-08-11T05:41:36.875Z,0.00
2022-08-11T05:42:36.868Z,0.00
2022-08-11T05:43:36.882Z,0.00
2022-08-11T05:44:36.897Z,0.00
2022-08-11T05:45:58.667Z,0.00
2022-08-11T05:46:36.959Z,0.00
2022-08-11T05:47:36.950Z,0.00
2022-08-11T05:48:36.965Z,0.00
2022-08-11T05:49:36.988Z,0.00
2022-08-11T05:50:37.113Z,0.00
2022-08-11T05:51:37.063Z,0.00
2022-08-11T05:52:38.323Z,0.00
2022-08-11T05:53:45.804Z,0.00
2022-08-11T05:54:37.084Z,0.00
2022-08-11T05:56:01.825Z,0.00
2022-08-11T05:56:37.143Z,0.00
2022-08-11T05:57:38.529Z,0.00
2022-08-11T05:58:42.003Z,0.00
2022-08-11T05:59:37.183Z,0.00
2022-08-11T06:00:37.185Z,0.00
2022-08-11T06:01:37.288Z,0.00
2022-08-11T06:02:37.439Z,0.00
2022-08-11T06:03:37.246Z,0.00
2022-08-11T06:04:37.260Z,0.00
2022-08-11T06:05:43.196Z,0.00
2022-08-11T06:06:40.103Z,0.00
2022-08-11T06:07:48.396Z,0.00
2022-08-11T06:08:37.340Z,0.00
2022-08-11T06:09:37.352Z,0.00
2022-08-11T06:10:37.369Z,0.00
2022-08-11T06:11:43.591Z,0.00
2022-08-11T06:12:37.761Z,0.00
2022-08-11T06:13:37.420Z,0.00
2022-08-11T06:14:37.435Z,0.00
2022-08-11T06:15:37.457Z,0.00
2022-08-11T06:16:37.504Z,0.00
2022-08-11T06:17:38.809Z,0.00
2022-08-11T06:18:37.506Z,0.00
2022-08-11T06:19:37.530Z,0.00
2022-08-11T06:20:37.658Z,0.00
2022-08-11T06:21:37.600Z,0.00
2022-08-11T06:22:37.677Z,0.00
2022-08-11T06:23:37.599Z,0.00
2022-08-11T06:24:37.615Z,0.00
2022-08-11T06:25:37.637Z,0.00
2022-08-11T06:26:55.096Z,0.00
2022-08-11T06:27:37.681Z,0.00
2022-08-11T06:28:37.687Z,0.00
2022-08-11T06:29:47.744Z,0.00
2022-08-11T06:30:37.731Z,0.00
2022-08-11T06:31:37.778Z,0.00
2022-08-11T06:32:37.951Z,0.00
2022-08-11T06:33:37.769Z,0.00
2022-08-11T06:34:37.785Z,0.00
2022-08-11T06:35:37.959Z,0.00
2022-08-11T06:36:37.839Z,0.00
2022-08-11T06:37:37.829Z,0.00
2022-08-11T06:38:37.852Z,0.00
2022-08-11T06:39:37.902Z,0.00
2022-08-11T06:40:37.887Z,0.00
2022-08-11T06:41:37.925Z,0.00
2022-08-11T06:42:38.067Z,0.00
2022-08-11T06:43:37.936Z,0.00
2022-08-11T06:44:37.958Z,0.00
2022-08-11T06:45:37.966Z,0.00
2022-08-11T06:46:38.008Z,0.00
2022-08-11T06:47:37.996Z,0.00
2022-08-11T06:48:38.023Z,0.00
2022-08-11T06:49:38.040Z,0.00
2022-08-11T06:50:38.060Z,0.00
2022-08-11T06:51:38.097Z,0.00
2022-08-11T06:52:38.101Z,0.00
2022-08-11T06:53:38.118Z,0.00
2022-08-11T06:54:38.137Z,0.00
2022-08-11T06:55:57.753Z,0.00
2022-08-11T06:56:38.177Z,0.00
2022-08-11T06:57:38.182Z,0.00
2022-08-11T06:58:38.205Z,0.00
2022-08-11T06:59:38.223Z,0.00
2022-08-11T07:00:38.246Z,0.00
2022-08-11T07:01:38.345Z,0.00
2022-08-11T07:02:38.275Z,0.00
2022-08-11T07:03:38.292Z,0.00
2022-08-11T07:04:38.312Z,0.00
2022-08-11T07:05:38.327Z,0.00
2022-08-11T07:06:41.609Z,0.00
2022-08-11T07:07:38.365Z,0.00
2022-08-11T07:08:38.377Z,0.00
2022-08-11T07:09:38.394Z,0.00
2022-08-11T07:10:38.409Z,0.00
2022-08-11T07:11:38.441Z,0.00
2022-08-11T07:12:38.540Z,0.00
2022-08-11T07:13:44.416Z,0.00
2022-08-11T07:14:38.768Z,0.00
2022-08-11T07:16:13.277Z,0.00
2022-08-11T07:16:38.531Z,0.00
2022-08-11T07:17:38.534Z,0.00
2022-08-11T07:18:38.579Z,0.00
2022-08-11T07:19:38.581Z,0.00
2022-08-11T07:20:38.586Z,0.00
2022-08-11T07:22:00.319Z,0.00
2022-08-11T07:22:38.899Z,0.00
2022-08-11T07:23:38.636Z,0.00
2022-08-11T07:24:59.767Z,0.00
2022-08-11T07:25:38.672Z,0.00
2022-08-11T07:26:38.716Z,0.00
2022-08-11T07:27:38.705Z,0.00
2022-08-11T07:28:38.728Z,0.00
2022-08-11T07:29:38.740Z,0.00
2022-08-11T07:30:38.763Z,0.00
2022-08-11T07:31:38.795Z,0.00
2022-08-11T07:32:39.089Z,0.00
2022-08-11T07:34:07.442Z,0.00
2022-08-11T07:34:38.840Z,0.00
2022-08-11T07:35:38.846Z,0.00
2022-08-11T07:36:38.885Z,0.00
2022-08-11T07:37:38.878Z,0.00
2022-08-11T07:38:38.896Z,0.00
2022-08-11T07:39:38.976Z,0.00
2022-08-11T07:40:38.938Z,0.00
2022-08-11T07:41:38.969Z,0.00
2022-08-11T07:42:39.266Z,0.00
2022-08-11T07:43:38.980Z,0.00
2022-08-11T07:44:39.002Z,0.00
2022-08-11T07:45:39.009Z,0.00
2022-08-11T07:46:39.052Z,0.00
2022-08-11T07:47:39.050Z,0.00
2022-08-11T07:48:39.095Z,0.00
2022-08-11T07:49:39.080Z,0.00
2022-08-11T07:50:39.102Z,0.00
2022-08-11T07:51:39.141Z,0.00
2022-08-11T07:52:39.362Z,0.00
2022-08-11T07:53:41.921Z,0.00
2022-08-11T07:54:39.179Z,0.00
2022-08-11T07:55:49.587Z,0.00
2022-08-11T07:56:55.283Z,0.00
2022-08-11T07:57:42.946Z,0.00
2022-08-11T07:58:44.033Z,0.00
2022-08-11T08:00:00.393Z,0.00
2022-08-11T08:00:39.291Z,0.00
2022-08-11T08:01:39.363Z,0.00
2022-08-11T08:02:39.410Z,0.00
2022-08-11T08:03:39.342Z,0.00
2022-08-11T08:04:40.654Z,0.00
2022-08-11T08:05:39.372Z,0.00
2022-08-11T08:06:39.413Z,0.00
2022-08-11T08:07:39.398Z,0.00
2022-08-11T08:08:39.419Z,0.00
2022-08-11T08:09:39.432Z,0.00
2022-08-11T08:10:39.457Z,0.00
2022-08-11T08:11:39.469Z,0.00
2022-08-11T08:12:39.715Z,0.00
2022-08-11T08:13:39.501Z,0.00
2022-08-11T08:14:39.523Z,0.00
2022-08-11T08:15:39.535Z,0.00
2022-08-11T08:16:39.578Z,0.00
2022-08-11T08:17:39.564Z,0.00
2022-08-11T08:18:39.606Z,0.00
2022-08-11T08:19:39.611Z,0.00
2022-08-11T08:20:39.654Z,0.00
2022-08-11T08:21:39.642Z,0.00
2022-08-11T08:22:41.889Z,0.00
2022-08-11T08:23:39.662Z,0.00
2022-08-11T08:24:39.687Z,0.00
2022-08-11T08:25:39.719Z,0.00
2022-08-11T08:26:39.721Z,0.00
2022-08-11T08:27:39.738Z,0.00
2022-08-11T08:28:39.757Z,0.00
2022-08-11T08:29:39.772Z,0.00
2022-08-11T08:30:39.812Z,0.00
2022-08-11T08:31:39.803Z,0.00
2022-08-11T08:32:39.946Z,0.00
2022-08-11T08:33:39.847Z,0.00
2022-08-11T08:34:39.862Z,0.00
2022-08-11T08:35:54.449Z,0.00
2022-08-11T08:36:39.904Z,0.00
2022-08-11T08:37:45.522Z,0.00
2022-08-11T08:38:39.934Z,0.00
2022-08-11T08:39:39.988Z,0.00
2022-08-11T08:40:39.982Z,0.00
2022-08-11T08:41:39.974Z,0.00
2022-08-11T08:42:44.900Z,0.00
2022-08-11T08:43:48.575Z,0.00
2022-08-11T08:44:41.469Z,0.00
2022-08-11T08:45:40.073Z,0.00
2022-08-11T08:46:40.123Z,0.00
2022-08-11T08:47:43.069Z,0.00
2022-08-11T08:48:40.095Z,0.00
2022-08-11T08:49:40.862Z,0.00
2022-08-11T08:50:40.155Z,0.00
2022-08-11T08:51:58.667Z,0.00
2022-08-11T08:52:43.595Z,0.00
2022-08-11T08:53:40.169Z,0.00
2022-08-11T08:54:40.190Z,0.00
2022-08-11T08:55:44.972Z,0.00
2022-08-11T08:56:40.220Z,0.00
2022-08-11T08:57:40.487Z,0.00
2022-08-11T08:58:40.244Z,0.00
2022-08-11T08:59:48.931Z,0.00
2022-08-11T09:00:40.316Z,0.00
2022-08-11T09:01:40.347Z,0.00
2022-08-11T09:02:40.314Z,0.00
2022-08-11T09:04:05.073Z,0.00
2022-08-11T09:04:40.358Z,0.00
2022-08-11T09:05:40.380Z,0.00
2022-08-11T09:06:40.410Z,0.00
2022-08-11T09:07:40.934Z,0.00
2022-08-11T09:08:40.419Z,0.00
2022-08-11T09:09:40.433Z,0.00
2022-08-11T09:10:40.483Z,0.00
2022-08-11T09:11:40.471Z,0.00
2022-08-11T09:12:40.486Z,0.00
2022-08-11T09:13:40.500Z,0.00
2022-08-11T09:14:40.522Z,0.00
2022-08-11T09:15:40.561Z,0.00
2022-08-11T09:16:40.562Z,0.00
2022-08-11T09:17:40.804Z,0.00
2022-08-11T09:18:40.593Z,0.00
2022-08-11T09:19:40.606Z,0.00
2022-08-11T09:20:40.658Z,0.00
2022-08-11T09:21:48.962Z,0.00
2022-08-11T09:22:40.779Z,0.00
2022-08-11T09:24:06.786Z,0.00
2022-08-11T09:24:40.714Z,0.00
2022-08-11T09:25:40.738Z,0.00
2022-08-11T09:26:40.733Z,0.00
2022-08-11T09:27:40.748Z,0.00
2022-08-11T09:28:40.784Z,0.00
2022-08-11T09:29:40.781Z,0.00
2022-08-11T09:30:40.820Z,0.00
2022-08-11T09:31:40.813Z,0.00
2022-08-11T09:32:40.835Z,0.00
2022-08-11T09:33:41.320Z,0.00
2022-08-11T09:34:40.868Z,0.00
2022-08-11T09:35:40.900Z,0.00
2022-08-11T09:36:40.908Z,0.00
2022-08-11T09:37:54.877Z,0.00
2022-08-11T09:38:40.951Z,0.00
2022-08-11T09:39:40.990Z,0.00
2022-08-11T09:40:40.996Z,0.00
2022-08-11T09:42:23.617Z,0.00
2022-08-11T09:42:41.015Z,0.00
2022-08-11T09:43:41.021Z,0.00
2022-08-11T09:44:41.042Z,0.00
2022-08-11T09:45:41.074Z,0.00
2022-08-11T09:46:41.082Z,0.00
2022-08-11T09:47:41.098Z,0.00
2022-08-11T09:49:36.353Z,43.45
2022-08-11T09:50:37.372Z,44.45
2022-08-11T09:51:37.352Z,44.12
2022-08-11T09:52:37.375Z,44.02
2022-08-11T09:53:41.185Z,44.10
2022-08-11T09:54:37.397Z,42.61
2022-08-11T09:55:37.433Z,43.21
2022-08-11T09:56:37.421Z,43.21
2022-08-11T09:57:37.591Z,43.49
2022-08-11T09:58:43.299Z,43.29
2022-08-11T09:59:37.460Z,42.09
2022-08-11T10:00:37.510Z,42.61
2022-08-11T10:01:37.561Z,42.19
2022-08-11T10:02:37.512Z,42.49
2022-08-11T10:03:40.317Z,42.61
2022-08-11T10:04:37.536Z,42.31
2022-08-11T10:05:37.565Z,42.59
2022-08-11T10:06:37.560Z,41.79
2022-08-11T10:07:37.651Z,42.39
2022-08-11T10:08:37.587Z,41.58
2022-08-11T10:09:37.599Z,41.89
2022-08-11T10:10:37.635Z,42.57
2022-08-11T10:11:37.626Z,43.07
2022-08-11T10:12:37.643Z,42.17
2022-08-11T10:14:32.080Z,41.67
2022-08-11T10:14:44.432Z,42.69
2022-08-11T10:15:37.708Z,42.07
2022-08-11T10:16:37.700Z,42.37
2022-08-11T10:17:37.892Z,42.86
2022-08-11T10:18:37.726Z,42.47
2022-08-11T10:19:37.737Z,41.58
2022-08-11T10:20:37.779Z,40.98
2022-08-11T10:21:37.761Z,41.87
2022-08-11T10:22:37.775Z,41.87
2022-08-11T10:24:00.919Z,41.87
2022-08-11T10:24:37.814Z,42.15
2022-08-11T10:25:37.834Z,42.25
2022-08-11T10:26:37.829Z,44.04
2022-08-11T10:27:43.154Z,42.94
2022-08-11T10:29:02.119Z,41.16
2022-08-11T10:29:44.548Z,41.66
2022-08-11T10:30:37.923Z,41.16
2022-08-11T10:31:56.976Z,41.46
2022-08-11T10:32:57.602Z,41.85
2022-08-11T10:33:42.985Z,41.25
2022-08-11T10:34:37.958Z,41.95
2022-08-11T10:35:37.977Z,41.25
2022-08-11T10:36:37.976Z,40.96
2022-08-11T10:38:08.748Z,41.55
2022-08-11T10:38:38.023Z,41.46
2022-08-11T10:39:38.065Z,41.25
2022-08-11T10:40:38.050Z,42.13
2022-08-11T10:41:38.041Z,41.14
2022-08-11T10:42:57.259Z,41.44
2022-08-11T10:44:03.203Z,41.34
2022-08-11T10:44:38.105Z,41.74
2022-08-11T10:45:38.141Z,41.91
2022-08-11T10:46:38.121Z,41.22
2022-08-11T10:47:38.286Z,40.92
2022-08-11T10:48:38.260Z,40.94
2022-08-11T10:49:38.146Z,40.94
2022-08-11T10:50:38.198Z,41.34
2022-08-11T10:51:50.938Z,40.94
2022-08-11T10:52:38.335Z,41.34
2022-08-11T10:53:38.199Z,41.14
2022-08-11T10:54:38.214Z,41.83
2022-08-11T10:55:38.279Z,41.71
2022-08-11T10:56:38.255Z,41.52
2022-08-11T10:57:38.547Z,41.52
2022-08-11T10:58:38.279Z,41.61
2022-08-11T10:59:38.285Z,41.52
2022-08-11T11:00:38.334Z,42.09
2022-08-11T11:01:38.371Z,40.92
2022-08-11T11:02:38.333Z,39.92
2022-08-11T11:03:38.333Z,40.92
2022-08-11T11:04:38.349Z,40.22
2022-08-11T11:05:38.392Z,41.31
2022-08-11T11:06:38.384Z,40.42
2022-08-11T11:07:41.509Z,39.92
2022-08-11T11:08:38.498Z,40.14
2022-08-11T11:09:38.422Z,41.61
2022-08-11T11:10:38.474Z,40.22
2022-08-11T11:11:38.447Z,41.02
2022-08-11T11:12:38.626Z,40.41
2022-08-11T11:13:38.533Z,39.92
2022-08-11T11:14:46.144Z,40.90
2022-08-11T11:15:38.549Z,40.90
2022-08-11T11:16:38.536Z,39.51
2022-08-11T11:17:38.544Z,41.22
2022-08-11T11:18:38.561Z,41.12
2022-08-11T11:19:38.569Z,40.52
2022-08-11T11:20:40.767Z,40.80
2022-08-11T11:21:38.633Z,40.20
2022-08-11T11:22:38.744Z,41.89
2022-08-11T11:23:38.634Z,40.01
2022-08-11T11:24:38.681Z,39.61
2022-08-11T11:25:38.687Z,39.29
2022-08-11T11:26:38.687Z,39.81
2022-08-11T11:27:46.596Z,41.97
2022-08-11T11:28:38.729Z,40.38
2022-08-11T11:29:38.736Z,40.07
2022-08-11T11:30:38.767Z,40.44
2022-08-11T11:31:38.761Z,38.96
2022-08-11T11:32:38.960Z,39.55
2022-08-11T11:34:06.462Z,39.45
2022-08-11T11:34:52.843Z,38.56
2022-08-11T11:35:38.860Z,38.96
2022-08-11T11:36:38.831Z,40.64
2022-08-11T11:37:38.845Z,39.73
2022-08-11T11:38:38.854Z,41.71
2022-08-11T11:39:38.905Z,41.12
2022-08-11T11:40:38.906Z,39.83
2022-08-11T11:41:38.892Z,38.15
2022-08-11T11:42:39.113Z,38.64
2022-08-11T11:43:38.928Z,38.84
2022-08-11T11:44:38.941Z,38.74
2022-08-11T11:45:38.975Z,38.34
2022-08-11T11:46:39.330Z,38.44
2022-08-11T11:47:38.990Z,38.15
2022-08-11T11:48:38.995Z,39.04
2022-08-11T11:49:39.013Z,37.67
2022-08-11T11:50:39.043Z,38.18
2022-08-11T11:51:39.040Z,39.39
2022-08-11T11:52:39.241Z,39.29
2022-08-11T11:53:39.071Z,40.47
2022-08-11T11:54:39.074Z,39.28
2022-08-11T11:55:39.115Z,39.06
2022-08-11T11:56:39.105Z,40.74
2022-08-11T11:57:39.407Z,39.53
2022-08-11T11:58:39.130Z,40.11
2022-08-11T11:59:39.148Z,38.23
2022-08-11T12:00:41.639Z,37.34
2022-08-11T12:01:39.178Z,37.93
2022-08-11T12:02:39.189Z,38.03
2022-08-11T12:03:39.265Z,37.45
2022-08-11T12:04:39.225Z,38.53
2022-08-11T12:05:39.268Z,37.43
2022-08-11T12:06:39.249Z,38.13
2022-08-11T12:07:39.474Z,37.93
2022-08-11T12:08:39.275Z,38.82
2022-08-11T12:09:39.290Z,39.69
2022-08-11T12:10:39.335Z,37.41
2022-08-11T12:11:39.316Z,36.92
2022-08-11T12:12:39.326Z,38.13
2022-08-11T12:13:39.340Z,38.11
2022-08-11T12:14:39.351Z,36.64
2022-08-11T12:16:31.230Z,37.63
2022-08-11T12:16:39.665Z,37.43
2022-08-11T12:17:39.519Z,37.43
2022-08-11T12:18:39.409Z,38.60
2022-08-11T12:19:39.424Z,37.62
2022-08-11T12:20:39.459Z,39.50
2022-08-11T12:21:39.456Z,39.28
2022-08-11T12:22:39.466Z,37.00
2022-08-11T12:23:39.482Z,36.80
2022-08-11T12:24:39.493Z,36.92
2022-08-11T12:25:39.532Z,38.21
2022-08-11T12:26:39.539Z,37.99
2022-08-11T12:27:39.774Z,37.81
2022-08-11T12:28:39.549Z,36.23
2022-08-11T12:29:39.896Z,36.94
2022-08-11T12:30:39.631Z,37.63
2022-08-11T12:31:39.596Z,38.60
2022-08-11T12:32:39.753Z,38.11
2022-08-11T12:33:39.623Z,36.92
2022-08-11T12:34:39.634Z,38.09
2022-08-11T12:35:39.670Z,36.80
2022-08-11T12:36:39.671Z,36.13
2022-08-11T12:37:39.849Z,36.82
2022-08-11T12:38:39.696Z,36.90
2022-08-11T12:40:15.645Z,36.71
2022-08-11T12:41:11.979Z,36.51
2022-08-11T12:41:39.909Z,36.82
2022-08-11T12:42:39.747Z,37.32
2022-08-11T12:43:40.013Z,38.01
2022-08-11T12:44:39.834Z,37.41
2022-08-11T12:45:39.807Z,37.49
2022-08-11T12:46:39.811Z,37.12
2022-08-11T12:47:40.037Z,38.13
2022-08-11T12:48:59.079Z,39.12
2022-08-11T12:49:44.883Z,38.42
2022-08-11T12:50:39.883Z,37.04
2022-08-11T12:52:14.013Z,37.35
2022-08-11T12:52:39.884Z,37.73
2022-08-11T12:53:39.897Z,36.94
2022-08-11T12:54:40.030Z,36.94
2022-08-11T12:55:39.956Z,37.65
2022-08-11T12:56:39.937Z,38.17
2022-08-11T12:57:40.122Z,37.96
2022-08-11T12:58:39.966Z,37.05
2022-08-11T12:59:39.978Z,37.65
2022-08-11T13:00:40.093Z,37.55
2022-08-11T13:01:40.012Z,37.55
2022-08-11T13:02:43.906Z,37.39
2022-08-11T13:03:40.050Z,38.48
2022-08-11T13:04:40.049Z,37.98
2022-08-11T13:05:44.593Z,38.17
2022-08-11T13:06:40.075Z,38.54
2022-08-11T13:07:49.894Z,37.73
2022-08-11T13:08:40.106Z,37.04
2022-08-11T13:09:40.123Z,37.73
2022-08-11T13:10:40.151Z,37.81
2022-08-11T13:11:56.555Z,37.51
2022-08-11T13:12:40.295Z,36.82